Latest Weather Observations for Jervois

IDD60801

Issued at 6:01 pm CST Saturday 23 May 2015 (issued every 30 minutes, with the page automatically refreshed every 10 minutes)

About weather observations | Map of weather stations | Latest weather observations for NT | Other Formats
Station Details ID: 015602 Name: JERVOIS Lat: -22.95 Lon: 136.14 Height: 328.0 m
Data from the previous 72 hours. | See also: Recent months at Jervois
Date/Time
CST
Temp
°C
App
Temp
°C
Dew
Point
Rel
Hum
%
Delta-T
°C
Wind Press
QNH
hPa
Press
MSL
hPa
Rain
since 9 am
mm
Dir
 
Spd
km/h
Gust
km/h
Spd
kts
Gust
kts
23/06:00pm 17.6 13.0 -1.0 28 8.0 SSE 13 22 7 12 1022.9 1022.2 0.0
23/05:30pm 18.4 13.3 -1.8 25 8.6 SE 15 20 8 11 1022.9 - 0.0
23/05:00pm 19.1 14.0 -1.6 24 8.9 SE 15 20 8 11 1022.7 - 0.0
23/04:30pm 19.8 14.4 -1.7 23 9.3 SE 17 24 9 13 1022.5 - 0.0
23/04:00pm 19.7 14.2 -1.9 23 9.3 SE 17 24 9 13 1022.5 - 0.0
23/03:30pm 19.1 14.4 -2.0 24 9.0 SE 13 24 7 13 1022.6 - 0.0
23/03:00pm 19.2 13.7 -1.8 24 9.0 ESE 17 22 9 12 1022.6 1021.9 0.0
23/02:30pm 19.7 14.8 -0.8 25 9.0 ESE 15 26 8 14 1022.9 - 0.0
23/02:00pm 18.9 14.4 -0.4 27 8.5 E 13 26 7 14 1023.4 - 0.0
23/01:30pm 18.1 13.3 0.3 30 7.9 SE 15 24 8 13 1023.8 - 0.0
23/01:00pm 17.9 12.8 0.6 31 7.7 ESE 17 28 9 15 1024.2 - 0.0
23/12:30pm 17.6 12.0 0.1 30 7.7 E 19 30 10 16 1024.8 - 0.0
23/12:00pm 16.6 11.4 0.4 33 7.1 ESE 17 26 9 14 1025.4 1024.7 0.0
23/11:30am 17.0 11.5 0.7 33 7.2 ESE 19 35 10 19 1025.8 - 0.0
23/11:00am 16.3 10.7 0.9 35 6.8 E 20 28 11 15 1026.4 - 0.0
23/10:30am 15.4 9.7 0.7 37 6.4 ESE 20 32 11 17 1026.9 - 0.0
23/10:00am 14.3 8.2 0.6 39 5.9 ESE 22 30 12 16 1027.3 - 0.0
23/09:30am 13.4 8.3 0.5 41 5.5 ESE 17 22 9 12 1027.7 - 0.0
23/09:00am 12.4 7.3 0.6 44 5.0 ESE 17 24 9 13 1027.4 1026.7 0.0
23/08:30am 10.5 6.9 0.3 49 4.2 SE 9 19 5 10 1027.2 - 0.0
23/08:00am 8.5 5.2 0.3 56 3.3 SSE 7 13 4 7 1027.2 - 0.0
23/07:30am 6.4 3.0 -0.3 62 2.6 S 7 11 4 6 1027.1 - 0.0
23/07:00am 5.2 1.8 -0.3 67 2.1 S 7 9 4 5 1026.8 - 0.0
23/06:30am 5.3 2.0 -0.1 68 2.1 S 7 11 4 6 1026.7 - 0.0
23/06:00am 5.6 2.3 -0.1 67 2.2 S 7 9 4 5 1026.2 1025.5 0.0
23/05:30am 5.8 2.5 -0.1 66 2.3 S 7 9 4 5 1026.3 - 0.0
23/05:00am 6.3 3.0 -0.1 63 2.5 S 7 9 4 5 1025.8 - 0.0
23/04:30am 6.8 3.5 -0.1 61 2.7 S 7 11 4 6 1025.8 - 0.0
23/04:00am 7.2 4.0 0.5 62 2.7 SSE 7 11 4 6 1025.8 - 0.0
23/03:30am 7.5 3.8 0.2 60 2.9 SSE 9 11 5 6 1025.7 - 0.0
23/03:00am 7.5 4.5 0.5 61 2.8 SSE 6 9 3 5 1025.7 1025.0 0.0
23/02:30am 8.2 4.5 0.2 57 3.2 SSE 9 11 5 6 1026.1 - 0.0
23/02:00am 9.0 4.9 0.1 53 3.6 SE 11 15 6 8 1026.3 - 0.0
23/01:30am 9.4 5.4 0.3 53 3.7 SE 11 17 6 9 1026.4 - 0.0
23/01:00am 9.7 5.7 0.4 52 3.8 SSE 11 19 6 10 1026.5 - 0.0
23/12:30am 10.2 6.5 0.2 50 4.1 SSE 9 13 5 7 1026.6 - 0.0
23/12:00am 10.6 6.5 0.1 48 4.3 SSE 11 19 6 10 1026.6 1025.8 0.0
 
Date/Time
CST
Temp
°C
App
Temp
°C
Dew
Point
Rel
Hum
%
Delta-T
°C
Wind Press
QNH
hPa
Press
MSL
hPa
Rain
since 9 am
mm
Dir
 
Spd
km/h
Gust
km/h
Spd
kts
Gust
kts
22/11:30pm 11.1 7.0 -0.1 46 4.6 SSE 11 17 6 9 1026.7 - 0.0
22/11:00pm 11.6 7.5 0.0 45 4.8 SSE 11 17 6 9 1026.8 - 0.0
22/10:30pm 11.7 7.2 -0.2 44 4.9 SE 13 17 7 9 1026.5 - 0.0
22/10:00pm 11.7 7.6 -0.5 43 5.0 SSE 11 15 6 8 1026.6 - 0.0
22/09:30pm 12.3 8.1 -0.6 41 5.3 SSE 11 15 6 8 1026.5 - 0.0
22/09:00pm 12.3 8.6 -0.2 42 5.2 SE 9 13 5 7 1026.4 1025.7 0.0
22/08:30pm 13.0 9.3 -0.1 40 5.5 SE 9 13 5 7 1026.5 - 0.0
22/08:00pm 13.8 9.6 -0.9 36 6.1 SSE 11 15 6 8 1026.4 - 0.0
22/07:30pm 14.7 10.4 -1.9 32 6.8 SSE 11 17 6 9 1026.2 - 0.0
22/07:00pm 15.4 11.0 -2.2 29 7.2 SSE 11 17 6 9 1026.2 - 0.0
22/06:30pm 16.1 11.7 -2.4 28 7.6 SSE 11 20 6 11 1025.7 - 0.0
22/06:00pm 16.8 11.6 -3.1 25 8.1 SE 15 26 8 14 1025.4 1024.7 0.0
22/05:30pm 17.0 10.8 -3.5 24 8.3 SE 20 32 11 17 1024.7 - 0.0
22/05:00pm 17.1 11.8 -3.3 24 8.3 SE 15 24 8 13 1025.4 - 0.0
22/04:30pm 17.8 12.1 -3.5 23 8.7 SE 17 26 9 14 1025.3 - 0.0
22/04:00pm 18.0 11.7 -4.4 21 9.0 SSE 20 30 11 16 1025.2 - 0.0
22/03:30pm 18.0 11.9 -4.0 22 9.0 SE 19 26 10 14 1025.2 - 0.0
22/03:00pm 17.9 11.8 -4.2 22 8.9 SSE 19 30 10 16 1025.1 1024.2 0.0
22/02:30pm 17.8 11.5 -4.4 21 8.9 E 20 35 11 19 1025.1 - 0.0
22/02:00pm 17.9 12.1 -4.2 22 8.9 SE 17 28 9 15 1025.6 - 0.0
22/01:30pm 17.5 11.5 -3.3 24 8.5 SE 19 26 10 14 1025.9 - 0.0
22/01:00pm 16.8 11.1 -3.9 24 8.3 SE 17 28 9 15 1026.3 - 0.0
22/12:30pm 16.3 10.3 -3.3 26 8.0 E 19 32 10 17 1026.8 - 0.0
22/12:00pm 15.5 9.6 -2.4 29 7.3 SE 19 32 10 17 1027.9 1027.2 0.0
22/11:30am 15.3 9.3 -1.2 32 6.9 SE 20 32 11 17 1028.4 - 0.0
22/11:00am 14.2 8.3 -1.0 35 6.4 SE 20 30 11 16 1029.1 - 0.0
22/10:30am 14.2 8.0 -0.3 37 6.2 ESE 22 37 12 20 1029.1 - 0.0
22/10:00am 13.4 7.3 0.1 40 5.7 SE 22 32 12 17 1029.3 - 0.0
22/09:30am 12.2 6.8 1.2 47 4.7 SE 19 24 10 13 1029.5 - 0.0
22/09:00am 11.1 5.5 1.2 50 4.2 SE 20 33 11 18 1028.9 1028.1 0.0
22/08:30am 9.6 4.9 0.6 53 3.7 SSE 15 22 8 12 1028.5 - 0.0
22/08:00am 8.0 4.4 0.6 59 3.0 S 9 15 5 8 1028.6 - 0.0
22/07:30am 6.1 2.9 0.5 67 2.2 S 7 9 4 5 1028.4 - 0.0
22/07:00am 5.1 1.9 0.5 72 1.8 S 7 9 4 5 1027.8 - 0.0
22/06:30am 5.3 2.0 0.4 70 1.9 S 7 9 4 5 1027.4 - 0.0
22/06:00am 5.8 2.6 0.5 69 2.1 S 7 11 4 6 1026.8 1026.0 0.0
22/05:30am 6.3 3.1 0.5 66 2.3 SSE 7 11 4 6 1026.6 - 0.0
22/05:00am 7.0 3.0 0.5 63 2.6 SSE 11 15 6 8 1026.3 - 0.0
22/04:30am 7.7 3.7 0.5 60 2.9 SSE 11 17 6 9 1026.2 - 0.0
22/04:00am 8.2 3.5 0.6 59 3.1 SSE 15 19 8 10 1026.1 - 0.0
22/03:30am 8.5 4.2 0.9 59 3.1 SSE 13 20 7 11 1026.3 - 0.0
22/03:00am 8.4 4.1 1.1 60 3.0 SSE 13 17 7 9 1026.1 1025.4 0.0
22/02:30am 9.0 4.7 1.0 57 3.3 SSE 13 17 7 9 1026.4 - 0.0
22/02:00am 9.6 5.3 0.9 54 3.6 SSE 13 19 7 10 1026.6 - 0.0
22/01:30am 10.0 5.7 1.2 54 3.7 SSE 13 20 7 11 1026.9 - 0.0
22/01:00am 10.2 6.3 1.1 53 3.8 SSE 11 17 6 9 1027.2 - 0.0
22/12:30am 10.7 6.8 1.2 52 4.0 SSE 11 15 6 8 1027.2 - 0.0
22/12:00am 11.5 7.2 1.1 49 4.4 SSE 13 20 7 11 1027.3 1026.7 0.0
 
Date/Time
CST
Temp
°C
App
Temp
°C
Dew
Point
Rel
Hum
%
Delta-T
°C
Wind Press
QNH
hPa
Press
MSL
hPa
Rain
since 9 am
mm
Dir
 
Spd
km/h
Gust
km/h
Spd
kts
Gust
kts
21/11:30pm 11.6 7.3 1.0 48 4.5 SSE 13 17 7 9 1027.7 - 0.0
21/11:00pm 12.1 8.2 1.1 47 4.7 SSE 11 17 6 9 1027.8 - 0.0
21/10:30pm 12.7 8.8 1.0 45 5.0 SSE 11 15 6 8 1027.8 - 0.0
21/10:00pm 13.3 8.9 0.6 42 5.4 SSE 13 19 7 10 1027.8 - 0.0
21/09:30pm 13.6 9.3 0.8 41 5.5 SSE 13 19 7 10 1027.6 - 0.0
21/09:00pm 14.2 9.9 0.8 40 5.8 SSE 13 19 7 10 1027.3 1026.6 0.0
21/08:30pm 14.6 10.3 1.1 40 5.9 SSE 13 19 7 10 1027.0 - 0.0
21/08:00pm 15.3 10.6 1.2 38 6.2 SSE 15 22 8 12 1026.8 - 0.0
21/07:30pm 15.6 11.4 1.7 39 6.2 SSE 13 17 7 9 1026.6 - 0.0
21/07:00pm 16.2 12.0 1.7 37 6.5 SSE 13 19 7 10 1026.2 - 0.0
21/06:30pm 16.9 12.4 1.9 36 6.8 SSE 15 22 8 12 1025.9 - 0.0
21/06:00pm 17.5 12.0 1.6 34 7.2 SSE 20 30 11 16 1025.3 1024.6 0.0
21/05:30pm 18.2 12.3 1.8 33 7.5 SSE 22 33 12 18 1024.9 - 0.0
21/05:00pm 18.9 13.2 0.6 29 8.3 S 20 32 11 17 1024.6 - 0.0
21/04:30pm 19.6 13.5 0.2 27 8.7 S 22 32 12 17 1024.1 - 0.0
21/04:00pm 20.1 13.8 1.4 28 8.7 SSE 24 35 13 19 1024.0 - 0.0
21/03:30pm 20.1 14.0 2.8 31 8.2 SSE 24 35 13 19 1024.1 - 0.0
21/03:00pm 19.7 13.5 2.4 31 8.1 S 24 35 13 19 1024.0 1023.4 0.0
21/02:30pm 19.8 14.0 2.3 31 8.2 S 22 37 12 20 1024.4 - 0.0
21/02:00pm 19.6 13.0 2.2 31 8.1 S 26 39 14 21 1024.6 - 0.0
21/01:30pm 19.3 13.4 2.0 31 8.0 S 22 37 12 20 1025.0 - 0.0
21/01:00pm 19.4 13.0 1.2 29 8.3 S 24 35 13 19 1025.6 - 0.0
21/12:30pm 18.9 11.8 1.3 30 8.0 S 28 44 15 24 1026.1 - 0.0
21/12:00pm 18.7 12.0 1.6 32 7.8 S 26 41 14 22 1026.6 1025.9 0.0
21/11:30am 18.4 12.2 2.1 33 7.5 S 24 39 13 21 1027.0 - 0.0
21/11:00am 18.3 11.0 2.3 34 7.4 SSE 30 43 16 23 1027.4 - 0.0
21/10:30am 17.3 10.3 2.2 36 6.9 SSE 28 43 15 23 1027.8 - 0.0
21/10:00am 17.1 9.4 2.5 37 6.7 SSE 32 43 17 23 1027.9 - 0.0
21/09:30am 16.8 9.7 3.5 41 6.3 SSE 30 41 16 22 1027.8 - 0.0
21/09:00am 16.8 10.2 4.1 43 6.0 SSE 28 41 15 22 1027.2 1026.5 0.0
21/08:30am 15.9 9.4 4.8 47 5.3 SSE 28 43 15 23 1026.8 - 0.0
21/08:00am 15.2 10.6 6.4 55 4.3 S 20 33 11 18 1026.5 - 0.0
21/07:30am 14.4 10.1 7.1 61 3.6 S 19 32 10 17 1026.0 - 0.0
21/07:00am 14.7 10.5 7.5 62 3.6 SSE 19 32 10 17 1025.4 - 0.0
21/06:30am 15.0 10.6 7.6 61 3.7 S 20 28 11 15 1025.1 - 0.0
21/06:00am 15.4 11.7 8.1 61 3.7 S 17 26 9 14 1024.5 1023.7 0.0
21/05:30am 15.4 12.6 8.4 63 3.6 SSE 13 19 7 10 1023.9 - 0.0
21/05:00am 15.8 12.6 8.4 61 3.8 SSE 15 20 8 11 1023.5 - 0.0
21/04:30am 16.1 13.0 8.8 62 3.8 SSE 15 20 8 11 1023.2 - 0.0
21/04:00am 16.8 13.4 9.2 61 4.0 SSE 17 24 9 13 1023.0 - 0.0
21/03:30am 17.3 14.1 10.0 62 3.9 SSE 17 26 9 14 1022.6 - 0.0
21/03:00am 17.7 15.1 9.4 58 4.4 SSE 13 19 7 10 1022.5 1021.7 0.0
21/02:30am 17.6 15.4 9.5 59 4.3 SE 11 17 6 9 1022.5 - 0.0
21/02:00am 17.9 16.0 9.2 56 4.6 SSE 9 15 5 8 1022.5 - 0.0
21/01:30am 17.8 15.6 9.5 58 4.4 SSE 11 17 6 9 1022.4 - 0.0
21/01:00am 17.9 15.3 9.4 57 4.5 SE 13 20 7 11 1022.5 - 0.0
21/12:30am 18.6 15.8 8.7 52 5.2 SE 13 20 7 11 1022.3 - 0.0
21/12:00am 19.0 15.5 7.1 46 6.1 SE 15 19 8 10 1022.3 1021.4 0.0
 
Date/Time
CST
Temp
°C
App
Temp
°C
Dew
Point
Rel
Hum
%
Delta-T
°C
Wind Press
QNH
hPa
Press
MSL
hPa
Rain
since 9 am
mm
Dir
 
Spd
km/h
Gust
km/h
Spd
kts
Gust
kts
20/11:30pm 19.1 16.2 6.7 44 6.3 SE 11 17 6 9 1022.2 - 0.0
20/11:00pm 19.5 17.0 6.7 43 6.5 SE 9 13 5 7 1022.1 - 0.0
20/10:30pm 19.9 17.5 7.1 43 6.6 SE 9 11 5 6 1022.3 - 0.0
20/10:00pm 20.0 17.6 7.2 43 6.6 SE 9 13 5 7 1022.1 - 0.0
20/09:30pm 20.1 17.8 7.3 43 6.6 SSE 9 13 5 7 1022.3 - 0.0
20/09:00pm 20.6 18.8 7.8 43 6.7 SSE 7 11 4 6 1022.3 1021.5 0.0
20/08:30pm 21.3 18.4 6.5 38 7.6 SSE 11 15 6 8 1021.9 - 0.0
20/08:00pm 21.6 18.6 6.1 36 7.9 SSE 11 15 6 8 1021.5 - 0.0
20/07:30pm 21.9 18.0 5.5 34 8.3 SSE 15 22 8 12 1021.2 - 0.0
20/07:00pm 22.1 19.0 5.5 34 8.4 SE 11 15 6 8 1020.7 - 0.0
20/06:30pm 22.3 19.1 5.3 33 8.6 SE 11 17 6 9 1020.4 - 0.0

Other Formats:

Comma delimited format used in spreadsheet applications
http://www.bom.gov.au/fwo/IDD60801/IDD60801.94327.axf

JavaScript Object Notation format (JSON) in row-major order
http://www.bom.gov.au/fwo/IDD60801/IDD60801.94327.json